createdAt,value
2022-10-24T00:00:18.101Z,47.33
2022-10-24T00:03:06.655Z,45.53
2022-10-24T00:05:35.496Z,43.78
2022-10-24T00:08:04.313Z,43.58
2022-10-24T00:10:33.069Z,40.17
2022-10-24T00:13:01.903Z,41.55
2022-10-24T00:15:31.004Z,44.33
2022-10-24T00:17:59.577Z,37.47
2022-10-24T00:20:28.167Z,39.22
2022-10-24T00:22:56.931Z,37.58
2022-10-24T00:25:25.714Z,41.40
2022-10-24T00:27:54.862Z,42.67
2022-10-24T00:30:23.277Z,36.58
2022-10-24T00:32:52.725Z,34.47
2022-10-24T00:35:21.855Z,34.95
2022-10-24T00:37:50.525Z,34.15
2022-10-24T00:40:20.486Z,34.38
2022-10-24T00:42:49.873Z,34.35
2022-10-24T00:45:45.425Z,48.38
2022-10-24T00:48:33.552Z,60.40
2022-10-24T00:51:26.843Z,51.05
2022-10-24T00:54:06.434Z,47.28
2022-10-24T00:56:40.871Z,46.47
2022-10-24T00:59:13.088Z,41.45
2022-10-24T01:01:44.052Z,42.47
2022-10-24T01:04:13.769Z,36.53
2022-10-24T01:06:46.043Z,37.35
2022-10-24T01:12:19.606Z,42.78
2022-10-24T01:15:02.846Z,46.15
2022-10-24T01:17:42.024Z,44.88
2022-10-24T01:20:25.895Z,50.45
2022-10-24T01:23:32.002Z,52.58
2022-10-24T01:26:19.252Z,49.40
2022-10-24T01:29:09.347Z,38.80
2022-10-24T01:31:52.106Z,40.00
2022-10-24T01:34:28.920Z,43.35
2022-10-24T01:37:04.774Z,38.42
2022-10-24T01:39:42.235Z,37.47
2022-10-24T01:42:16.763Z,49.70
2022-10-24T01:44:49.569Z,47.28
2022-10-24T01:47:32.765Z,56.83
2022-10-24T01:50:10.262Z,57.55
2022-10-24T01:52:42.418Z,55.58
2022-10-24T01:55:12.070Z,49.28
2022-10-24T01:57:40.880Z,45.88
2022-10-24T02:00:17.220Z,47.55
2022-10-24T02:02:52.063Z,41.97
2022-10-24T02:05:27.069Z,43.70
2022-10-24T02:08:01.721Z,46.35
2022-10-24T02:11:00.825Z,48.00
2022-10-24T02:13:40.376Z,47.97
2022-10-24T02:16:09.939Z,47.33
2022-10-24T02:18:40.293Z,48.58
2022-10-24T02:21:30.183Z,45.42
2022-10-24T02:24:19.183Z,49.13
2022-10-24T02:26:58.661Z,45.80
2022-10-24T02:30:02.983Z,44.80
2022-10-24T02:32:42.379Z,42.75
2022-10-24T02:35:15.087Z,43.05
2022-10-24T02:37:48.370Z,41.78
2022-10-24T02:40:19.963Z,45.90
2022-10-24T02:42:51.860Z,41.80
2022-10-24T02:45:22.510Z,41.70
2022-10-24T02:47:56.588Z,38.65
2022-10-24T02:50:26.295Z,38.90
2022-10-24T02:52:54.673Z,37.22
2022-10-24T02:55:24.249Z,38.75
2022-10-24T02:57:53.005Z,42.75
2022-10-24T03:00:25.079Z,42.30
2022-10-24T03:02:53.573Z,44.92
2022-10-24T03:05:22.275Z,45.65
2022-10-24T03:07:50.749Z,48.60
2022-10-24T03:10:19.461Z,50.42
2022-10-24T03:12:48.070Z,43.05
2022-10-24T03:15:17.621Z,44.88
2022-10-24T03:17:49.444Z,38.80
2022-10-24T03:20:18.531Z,38.17
2022-10-24T03:22:47.078Z,41.50
2022-10-24T03:25:16.081Z,42.60
2022-10-24T03:27:44.698Z,41.70
2022-10-24T03:30:13.751Z,42.97
2022-10-24T03:32:42.586Z,51.58
2022-10-24T03:35:14.007Z,51.47
2022-10-24T03:37:43.291Z,51.75
2022-10-24T03:40:12.716Z,44.45
2022-10-24T03:42:41.176Z,39.30
2022-10-24T03:45:10.581Z,50.28
2022-10-24T03:47:39.522Z,46.95
2022-10-24T03:50:09.055Z,49.10
2022-10-24T03:52:37.684Z,44.70
2022-10-24T03:55:06.875Z,42.47
2022-10-24T03:57:35.505Z,43.05
2022-10-24T04:00:05.601Z,44.38
2022-10-24T04:02:35.664Z,42.72
2022-10-24T04:05:07.275Z,41.78
2022-10-24T04:07:36.184Z,42.33
2022-10-24T04:10:06.404Z,42.08
2022-10-24T04:12:34.980Z,42.60
2022-10-24T04:15:05.229Z,47.10
2022-10-24T04:17:33.841Z,47.78
2022-10-24T04:20:22.656Z,47.33
2022-10-24T04:22:55.734Z,43.65
2022-10-24T04:25:24.131Z,46.70
2022-10-24T04:27:52.752Z,48.05
2022-10-24T04:30:21.109Z,51.80
2022-10-24T04:32:49.634Z,48.65
2022-10-24T04:35:18.255Z,50.78
2022-10-24T04:37:46.920Z,55.10
2022-10-24T04:40:15.275Z,45.42
2022-10-24T04:42:44.393Z,39.55
2022-10-24T04:45:12.916Z,42.10
2022-10-24T04:47:41.563Z,38.25
2022-10-24T04:50:10.328Z,38.70
2022-10-24T04:52:38.959Z,40.90
2022-10-24T04:55:07.766Z,45.13
2022-10-24T04:57:36.810Z,47.58
2022-10-24T05:00:07.020Z,46.25
2022-10-24T05:02:36.397Z,54.40
2022-10-24T05:05:05.661Z,62.08
2022-10-24T05:07:34.459Z,70.45
2022-10-24T05:10:07.321Z,74.47
2022-10-24T05:12:36.450Z,60.58
2022-10-24T05:15:05.874Z,53.42
2022-10-24T05:17:35.227Z,54.22
2022-10-24T05:20:04.728Z,59.88
2022-10-24T05:22:34.993Z,61.47
2022-10-24T05:25:04.061Z,61.00
2022-10-24T05:27:33.456Z,60.30
2022-10-24T05:30:01.898Z,67.82
2022-10-24T05:32:31.486Z,83.90
2022-10-24T05:35:01.240Z,114.43
2022-10-24T05:39:59.436Z,97.00
2022-10-24T05:42:28.321Z,67.75
2022-10-24T05:44:56.968Z,77.40
2022-10-24T05:47:28.388Z,55.88
2022-10-24T05:49:57.645Z,48.97
2022-10-24T05:52:47.220Z,53.95
2022-10-24T05:55:18.226Z,54.35
2022-10-24T05:57:47.574Z,45.67
2022-10-24T06:00:17.930Z,40.05
2022-10-24T06:05:21.072Z,40.08
2022-10-24T06:07:49.786Z,38.90
2022-10-24T06:10:18.935Z,39.08
2022-10-24T06:12:48.076Z,39.13
2022-10-24T06:15:16.804Z,39.92
2022-10-24T06:17:45.471Z,38.75
2022-10-24T06:20:13.856Z,37.58
2022-10-24T06:22:45.778Z,36.97
2022-10-24T06:27:43.640Z,43.28
2022-10-24T06:30:12.104Z,40.13
2022-10-24T06:32:43.782Z,41.85
2022-10-24T06:35:15.082Z,48.13
2022-10-24T06:37:47.174Z,57.58
2022-10-24T06:40:18.362Z,56.15
2022-10-24T06:42:47.487Z,51.45
2022-10-24T06:45:16.463Z,40.15
2022-10-24T06:47:45.488Z,44.25
2022-10-24T06:50:14.745Z,42.38
2022-10-24T06:52:44.381Z,44.13
2022-10-24T06:55:12.915Z,48.25
2022-10-24T06:57:41.885Z,49.30
2022-10-24T07:00:11.116Z,52.80
2022-10-24T07:02:40.453Z,47.83
2022-10-24T07:05:12.963Z,54.90
2022-10-24T07:07:43.280Z,52.25
2022-10-24T07:10:15.359Z,44.97
2022-10-24T07:15:12.729Z,43.80
2022-10-24T07:17:48.026Z,46.72
2022-10-24T07:20:16.547Z,44.03
2022-10-24T07:22:45.888Z,45.90
2022-10-24T07:25:14.694Z,42.65
2022-10-24T07:27:43.322Z,44.63
2022-10-24T07:30:17.121Z,42.13
2022-10-24T07:32:46.005Z,40.67
2022-10-24T07:35:14.817Z,38.28
2022-10-24T07:37:43.723Z,39.80
2022-10-24T07:40:13.257Z,39.30
2022-10-24T07:42:41.902Z,35.13
2022-10-24T07:45:11.101Z,34.20
2022-10-24T07:47:39.689Z,32.45
2022-10-24T07:50:08.852Z,31.05
2022-10-24T07:52:37.676Z,30.42
2022-10-24T07:55:06.375Z,30.50
2022-10-24T07:57:35.100Z,29.40
2022-10-24T08:00:05.209Z,30.92
2022-10-24T08:02:41.230Z,29.88
2022-10-24T08:05:11.777Z,27.25
2022-10-24T08:07:40.525Z,27.17
2022-10-24T08:10:13.459Z,28.48
2022-10-24T08:12:42.702Z,26.60
2022-10-24T08:15:11.460Z,27.42
2022-10-24T08:17:40.481Z,26.90
2022-10-24T08:20:09.742Z,26.73
2022-10-24T08:22:38.724Z,26.27
2022-10-24T08:25:09.814Z,26.08
2022-10-24T08:27:38.663Z,25.60
2022-10-24T08:30:08.774Z,26.17
2022-10-24T08:32:38.394Z,25.27
2022-10-24T08:35:09.153Z,24.65
2022-10-24T08:37:38.484Z,24.00
2022-10-24T08:40:17.981Z,24.02
2022-10-24T08:42:48.378Z,24.23
2022-10-24T08:45:26.050Z,24.08
2022-10-24T08:48:08.666Z,23.42
2022-10-24T08:50:38.330Z,21.70
2022-10-24T08:53:12.761Z,21.40
2022-10-24T08:55:50.888Z,20.25
2022-10-24T08:58:34.264Z,21.52
2022-10-24T09:01:07.795Z,19.88
2022-10-24T09:03:57.809Z,18.67
2022-10-24T09:06:29.206Z,17.75
2022-10-24T09:09:26.826Z,17.30
2022-10-24T09:12:01.929Z,16.50
2022-10-24T09:14:33.906Z,15.82
2022-10-24T09:17:11.653Z,15.05
2022-10-24T09:19:40.806Z,14.70
2022-10-24T09:22:12.470Z,14.10
2022-10-24T09:24:51.426Z,14.20
2022-10-24T09:27:33.445Z,15.38
2022-10-24T09:30:03.234Z,14.18
2022-10-24T09:32:33.596Z,14.35
2022-10-24T09:35:20.878Z,14.80
2022-10-24T09:37:57.910Z,14.57
2022-10-24T09:40:31.933Z,15.15
2022-10-24T09:43:18.027Z,14.82
2022-10-24T09:45:49.367Z,15.07
2022-10-24T09:48:17.668Z,14.82
2022-10-24T09:50:48.505Z,14.82
2022-10-24T09:53:30.821Z,14.68
2022-10-24T09:56:06.913Z,14.77
2022-10-24T09:58:35.848Z,14.70
2022-10-24T10:01:26.702Z,13.75
2022-10-24T10:04:08.900Z,14.93
2022-10-24T10:06:45.077Z,13.73
2022-10-24T10:09:16.864Z,14.18
2022-10-24T10:14:29.973Z,14.05
2022-10-24T10:17:05.999Z,13.02
2022-10-24T10:19:38.575Z,13.75
2022-10-24T10:22:21.517Z,13.77
2022-10-24T10:24:50.287Z,13.57
2022-10-24T10:27:37.988Z,13.43
2022-10-24T10:30:12.428Z,13.10
2022-10-24T10:32:51.672Z,12.65
2022-10-24T10:35:26.782Z,12.82
2022-10-24T10:38:01.105Z,12.52
2022-10-24T10:40:34.685Z,11.60
2022-10-24T10:43:33.962Z,11.80
2022-10-24T10:46:29.901Z,12.13
2022-10-24T10:49:20.488Z,11.00
2022-10-24T10:51:52.998Z,11.38
2022-10-24T10:54:43.242Z,10.80
2022-10-24T10:57:22.532Z,10.57
2022-10-24T11:00:12.922Z,10.70
2022-10-24T11:03:02.976Z,10.23
2022-10-24T11:05:59.008Z,9.80
2022-10-24T11:08:40.875Z,9.32
2022-10-24T11:11:23.315Z,10.50
2022-10-24T11:16:41.860Z,10.10
2022-10-24T11:19:23.642Z,8.63
2022-10-24T11:21:55.029Z,8.57
2022-10-24T11:24:25.357Z,8.68
2022-10-24T11:27:12.468Z,8.27
2022-10-24T11:29:50.928Z,8.25
2022-10-24T11:32:27.245Z,8.15
2022-10-24T11:35:01.871Z,8.52
2022-10-24T11:37:35.251Z,8.38
2022-10-24T11:40:10.714Z,8.63
2022-10-24T11:43:04.565Z,8.30
2022-10-24T11:45:47.826Z,8.77
2022-10-24T11:48:37.194Z,8.27
2022-10-24T11:51:18.857Z,7.55
2022-10-24T11:54:04.286Z,8.15
2022-10-24T11:56:43.656Z,7.82
2022-10-24T11:59:24.547Z,8.82
2022-10-24T12:01:56.834Z,8.32
2022-10-24T12:04:39.249Z,8.43
2022-10-24T12:07:28.653Z,8.07
2022-10-24T12:10:28.661Z,7.97
2022-10-24T12:13:21.174Z,6.95
2022-10-24T12:16:12.454Z,7.97
2022-10-24T12:18:48.926Z,7.95
2022-10-24T12:21:28.343Z,8.40
2022-10-24T12:23:59.100Z,8.30
2022-10-24T12:26:32.804Z,8.30
2022-10-24T12:29:06.475Z,8.55
2022-10-24T12:31:38.228Z,9.20
2022-10-24T12:34:15.979Z,8.15
2022-10-24T12:37:08.401Z,9.02
2022-10-24T12:42:24.303Z,9.15
2022-10-24T12:45:02.022Z,9.98
2022-10-24T12:47:42.045Z,9.25
2022-10-24T12:50:23.118Z,10.23
2022-10-24T12:53:04.266Z,9.30
2022-10-24T12:55:39.859Z,9.10
2022-10-24T12:58:34.439Z,9.07
2022-10-24T13:01:23.406Z,9.50
2022-10-24T13:04:23.955Z,9.02
2022-10-24T13:06:52.450Z,8.90
2022-10-24T13:09:34.123Z,8.57
2022-10-24T13:12:34.982Z,8.70
2022-10-24T13:15:27.536Z,9.52
2022-10-24T13:18:21.565Z,9.00
2022-10-24T13:21:32.008Z,8.40
2022-10-24T13:24:15.530Z,8.55
2022-10-24T13:26:49.272Z,9.13
2022-10-24T13:29:24.058Z,8.45
2022-10-24T13:31:54.719Z,8.95
2022-10-24T13:34:31.743Z,9.23
2022-10-24T13:37:07.638Z,8.35
2022-10-24T13:39:50.616Z,8.65
2022-10-24T13:42:27.884Z,8.93
2022-10-24T13:45:00.137Z,8.40
2022-10-24T13:47:44.961Z,9.40
2022-10-24T13:50:30.187Z,8.40
2022-10-24T13:53:57.809Z,8.70
2022-10-24T14:00:28.884Z,8.07
2022-10-24T14:03:01.439Z,8.25
2022-10-24T14:05:38.393Z,8.05
2022-10-24T14:08:09.906Z,8.10
2022-10-24T14:10:38.984Z,8.27
2022-10-24T14:13:40.717Z,8.25
2022-10-24T14:16:10.409Z,8.07
2022-10-24T14:18:41.930Z,7.93
2022-10-24T14:21:20.998Z,8.10
2022-10-24T14:24:00.550Z,7.88
2022-10-24T14:26:29.723Z,8.20
2022-10-24T14:29:34.505Z,8.20
2022-10-24T14:32:08.460Z,8.20
2022-10-24T14:34:42.481Z,7.80
2022-10-24T14:37:16.847Z,8.00
2022-10-24T14:39:46.785Z,8.13
2022-10-24T14:42:18.629Z,9.68
2022-10-24T14:45:55.644Z,9.77
2022-10-24T14:48:24.545Z,14.02
2022-10-24T14:51:26.393Z,14.75
2022-10-24T14:53:57.164Z,22.40
2022-10-24T14:56:37.262Z,22.77
2022-10-24T14:59:35.432Z,28.40
2022-10-24T15:02:06.977Z,25.58
2022-10-24T15:04:41.520Z,22.73
2022-10-24T15:07:37.146Z,21.38
2022-10-24T15:10:13.185Z,24.17
2022-10-24T15:13:09.377Z,22.58
2022-10-24T15:16:06.874Z,20.92
2022-10-24T15:18:44.022Z,21.63
2022-10-24T15:21:20.088Z,19.23
2022-10-24T15:23:55.824Z,20.33
2022-10-24T15:26:35.463Z,20.02
2022-10-24T15:29:18.283Z,23.08
2022-10-24T15:31:59.603Z,23.45
2022-10-24T15:34:30.287Z,30.73
2022-10-24T15:37:21.603Z,43.15
2022-10-24T15:39:51.051Z,34.97
2022-10-24T15:42:22.586Z,29.73
2022-10-24T15:44:51.404Z,29.70
2022-10-24T15:48:34.832Z,30.33
2022-10-24T15:51:31.421Z,36.45
2022-10-24T15:54:01.414Z,48.60
2022-10-24T15:56:30.071Z,53.80
2022-10-24T15:58:58.904Z,47.47
2022-10-24T16:01:40.743Z,45.42
2022-10-24T16:04:21.785Z,45.78
2022-10-24T16:07:04.202Z,44.15
2022-10-24T16:13:58.902Z,58.85
2022-10-24T16:16:40.614Z,57.67
2022-10-24T16:19:14.482Z,65.45
2022-10-24T16:41:31.057Z,58.33
2022-10-24T16:49:45.846Z,61.78
2022-10-24T16:54:53.522Z,71.43
2022-10-24T16:59:51.983Z,77.30
2022-10-24T17:02:20.875Z,80.93
2022-10-24T17:04:49.317Z,79.43
2022-10-24T17:07:18.308Z,77.22
2022-10-24T17:09:46.748Z,66.68
2022-10-24T17:12:16.744Z,63.95
2022-10-24T17:14:46.682Z,60.33
2022-10-24T17:17:16.810Z,51.63
2022-10-24T17:19:48.417Z,51.72
2022-10-24T17:22:20.887Z,49.65
2022-10-24T17:24:49.517Z,52.50
2022-10-24T17:27:18.334Z,66.63
2022-10-24T17:29:48.071Z,41.83
2022-10-24T17:32:18.102Z,44.50
2022-10-24T17:34:50.506Z,43.53
2022-10-24T17:37:42.322Z,29.58
2022-10-24T17:40:21.803Z,35.22
2022-10-24T17:42:50.913Z,34.13
2022-10-24T17:45:23.187Z,24.90
2022-10-24T17:47:53.107Z,20.83
2022-10-24T17:50:21.583Z,18.33
2022-10-24T17:52:51.406Z,16.15
2022-10-24T17:55:40.932Z,16.55
2022-10-24T17:58:09.743Z,15.38
2022-10-24T18:00:38.337Z,16.15
2022-10-24T18:03:08.920Z,15.63
2022-10-24T18:05:38.508Z,16.05
2022-10-24T18:08:12.167Z,16.45
2022-10-24T18:10:41.152Z,16.77
2022-10-24T18:13:11.137Z,15.88
2022-10-24T18:15:39.572Z,15.23
2022-10-24T18:18:33.404Z,14.80
2022-10-24T18:21:21.018Z,14.65
2022-10-24T18:23:49.659Z,14.65
2022-10-24T18:26:20.764Z,14.32
2022-10-24T18:28:51.773Z,14.52
2022-10-24T18:31:25.463Z,14.60
2022-10-24T18:33:56.056Z,14.18
2022-10-24T18:36:27.348Z,13.55
2022-10-24T18:38:59.220Z,13.32
2022-10-24T18:41:29.427Z,13.75
2022-10-24T18:44:00.327Z,15.05
2022-10-24T18:46:30.351Z,16.02
2022-10-24T18:48:59.360Z,16.38
2022-10-24T18:51:36.020Z,16.25
2022-10-24T18:54:07.713Z,15.15
2022-10-24T18:56:38.967Z,15.32
2022-10-24T18:59:16.788Z,16.80
2022-10-24T19:02:11.311Z,16.02
2022-10-24T19:04:47.842Z,15.93
2022-10-24T19:07:16.283Z,16.42
2022-10-24T19:09:47.635Z,16.65
2022-10-24T19:13:23.277Z,17.27
2022-10-24T19:47:07.448Z,13.23
2022-10-24T19:49:50.268Z,12.40
2022-10-24T19:52:18.811Z,12.15
2022-10-24T19:54:47.784Z,12.55
2022-10-24T19:57:59.440Z,12.82
2022-10-24T20:07:20.783Z,10.95
2022-10-24T20:12:35.655Z,11.30
2022-10-24T20:15:06.307Z,11.48
2022-10-24T20:18:00.767Z,12.20
2022-10-24T20:20:29.354Z,11.30
2022-10-24T20:23:51.092Z,10.65
2022-10-24T20:27:44.527Z,9.73
2022-10-24T20:30:19.904Z,9.82
2022-10-24T20:32:56.511Z,9.30
2022-10-24T20:35:52.481Z,9.50
2022-10-24T20:38:20.918Z,9.30
2022-10-24T20:42:05.419Z,9.57
2022-10-24T20:44:16.033Z,9.95
2022-10-24T20:46:47.234Z,9.60
2022-10-24T20:49:15.855Z,8.40
2022-10-24T20:51:48.736Z,8.55
2022-10-24T20:54:23.180Z,8.55
2022-10-24T20:56:59.280Z,7.95
2022-10-24T20:59:27.620Z,8.60
2022-10-24T21:01:56.435Z,8.18
2022-10-24T21:04:25.016Z,8.07
2022-10-24T21:06:53.661Z,7.78
2022-10-24T21:09:22.191Z,8.02
2022-10-24T21:11:50.797Z,8.05
2022-10-24T21:14:20.854Z,7.75
2022-10-24T21:16:49.709Z,7.57
2022-10-24T21:19:18.277Z,7.47
2022-10-24T21:21:47.516Z,7.07
2022-10-24T21:24:18.111Z,6.40
2022-10-24T21:26:46.691Z,6.78
2022-10-24T21:29:32.286Z,7.05
2022-10-24T21:32:02.117Z,6.13
2022-10-24T21:34:34.171Z,6.57
2022-10-24T21:39:50.547Z,6.88
2022-10-24T21:42:19.198Z,5.90
2022-10-24T21:44:47.507Z,5.53
2022-10-24T21:47:16.287Z,5.65
2022-10-24T21:49:44.524Z,5.30
2022-10-24T21:52:19.129Z,4.97
2022-10-24T21:54:53.121Z,5.13
2022-10-24T21:57:22.390Z,5.38
2022-10-24T21:59:50.637Z,5.40
2022-10-24T22:02:19.504Z,5.05
2022-10-24T22:04:51.733Z,5.15
2022-10-24T22:07:21.625Z,5.30
2022-10-24T22:10:14.223Z,4.95
2022-10-24T22:12:43.118Z,5.15
2022-10-24T22:15:11.575Z,4.85
2022-10-24T22:17:40.245Z,4.72
2022-10-24T22:20:09.317Z,4.38
2022-10-24T22:22:37.990Z,4.70
2022-10-24T22:25:06.864Z,4.70
2022-10-24T22:28:01.504Z,4.55
2022-10-24T22:30:29.923Z,5.07
2022-10-24T22:32:59.476Z,5.00
2022-10-24T22:35:28.304Z,5.13
2022-10-24T22:37:57.124Z,5.35
2022-10-24T22:40:28.692Z,5.00
2022-10-24T22:42:58.160Z,4.85
2022-10-24T22:45:26.894Z,4.70
2022-10-24T22:48:13.571Z,5.28
2022-10-24T22:50:51.508Z,4.70
2022-10-24T22:53:23.284Z,4.90
2022-10-24T22:56:04.707Z,5.10
2022-10-24T22:58:33.585Z,4.68
2022-10-24T23:01:44.333Z,5.07
2022-10-24T23:04:34.427Z,4.97
2022-10-24T23:07:31.532Z,4.80
2022-10-24T23:10:00.270Z,5.00
2022-10-24T23:12:29.290Z,5.30
2022-10-24T23:14:58.476Z,5.30
2022-10-24T23:17:29.858Z,5.15
2022-10-24T23:19:59.464Z,5.22
2022-10-24T23:22:32.322Z,5.40
2022-10-24T23:25:01.768Z,5.95
2022-10-24T23:27:44.591Z,5.75
2022-10-24T23:30:20.444Z,6.00
2022-10-24T23:32:50.470Z,6.03
2022-10-24T23:35:20.126Z,5.65
2022-10-24T23:37:51.028Z,5.88
2022-10-24T23:40:36.572Z,6.53
2022-10-24T23:43:05.608Z,6.30
2022-10-24T23:45:47.531Z,6.38
2022-10-24T23:48:48.602Z,6.22
2022-10-24T23:51:42.805Z,6.77
2022-10-24T23:54:13.040Z,6.63
2022-10-24T23:56:41.871Z,7.10
2022-10-24T23:59:10.143Z,7.05
